createdAt,value
2018-09-13T00:01:48.419Z,79.20
2018-09-13T00:04:16.654Z,79.30
2018-09-13T00:06:45.055Z,79.30
2018-09-13T00:09:13.615Z,79.40
2018-09-13T00:11:41.891Z,79.20
2018-09-13T00:14:10.197Z,78.60
2018-09-13T00:16:38.532Z,79.20
2018-09-13T00:19:06.854Z,79.40
2018-09-13T00:21:35.194Z,79.40
2018-09-13T00:24:03.428Z,79.70
2018-09-13T00:26:31.738Z,79.40
2018-09-13T00:29:00.356Z,79.50
2018-09-13T00:31:28.620Z,79.60
2018-09-13T00:33:56.946Z,79.40
2018-09-13T00:36:25.390Z,79.50
2018-09-13T00:38:53.673Z,79.40
2018-09-13T00:41:21.916Z,79.40
2018-09-13T00:43:50.325Z,79.60
2018-09-13T00:46:18.620Z,79.50
2018-09-13T00:48:46.969Z,79.60
2018-09-13T00:51:17.486Z,79.50
2018-09-13T00:53:46.612Z,79.60
2018-09-13T00:56:14.951Z,79.50
2018-09-13T00:58:43.233Z,79.80
2018-09-13T01:01:11.749Z,79.80
2018-09-13T01:03:40.023Z,79.70
2018-09-13T01:06:08.309Z,79.90
2018-09-13T01:08:36.650Z,79.90
2018-09-13T01:11:05.126Z,79.90
2018-09-13T01:13:33.426Z,80.00
2018-09-13T01:16:01.916Z,80.00
2018-09-13T01:18:30.285Z,80.10
2018-09-13T01:20:58.875Z,80.20
2018-09-13T01:23:27.438Z,80.20
2018-09-13T01:25:55.711Z,80.20
2018-09-13T01:28:24.143Z,80.20
2018-09-13T01:30:52.452Z,80.30
2018-09-13T01:33:20.875Z,80.30
2018-09-13T01:35:49.133Z,80.30
2018-09-13T01:38:17.661Z,80.70
2018-09-13T01:40:46.026Z,80.60
2018-09-13T01:43:14.324Z,80.60
2018-09-13T01:45:47.819Z,80.60
2018-09-13T01:48:16.121Z,80.70
2018-09-13T01:50:44.479Z,80.70
2018-09-13T01:53:12.830Z,80.70
2018-09-13T01:55:41.441Z,80.80
2018-09-13T01:58:09.924Z,80.80
2018-09-13T02:00:38.670Z,80.80
2018-09-13T02:03:07.079Z,80.90
2018-09-13T02:05:35.497Z,81.00
2018-09-13T02:08:03.964Z,80.90
2018-09-13T02:10:32.534Z,81.00
2018-09-13T02:13:01.872Z,80.90
2018-09-13T02:15:30.185Z,81.10
2018-09-13T02:17:58.684Z,81.10
2018-09-13T02:20:27.240Z,81.10
2018-09-13T02:22:55.555Z,81.10
2018-09-13T02:25:24.003Z,81.00
2018-09-13T02:27:52.578Z,81.20
2018-09-13T02:30:20.958Z,81.30
2018-09-13T02:32:49.356Z,81.40
2018-09-13T02:35:17.819Z,81.40
2018-09-13T02:37:46.330Z,81.40
2018-09-13T02:40:14.807Z,81.50
2018-09-13T02:42:43.221Z,81.50
2018-09-13T02:45:11.488Z,81.50
2018-09-13T02:47:40.036Z,81.50
2018-09-13T02:50:08.523Z,81.60
2018-09-13T02:52:37.042Z,81.60
2018-09-13T02:55:05.468Z,81.60
2018-09-13T02:57:34.066Z,81.70
2018-09-13T03:00:02.414Z,81.70
2018-09-13T03:02:30.718Z,81.70
2018-09-13T03:04:59.015Z,81.70
2018-09-13T03:07:27.878Z,81.80
2018-09-13T03:09:56.202Z,81.80
2018-09-13T03:12:24.849Z,81.90
2018-09-13T03:14:53.306Z,82.00
2018-09-13T03:17:21.733Z,82.00
2018-09-13T03:19:50.164Z,81.90
2018-09-13T03:22:18.764Z,81.90
2018-09-13T03:24:47.157Z,82.00
2018-09-13T03:27:15.436Z,82.00
2018-09-13T03:29:44.301Z,82.20
2018-09-13T03:32:12.529Z,82.30
2018-09-13T03:34:40.809Z,82.40
2018-09-13T03:37:09.065Z,82.40
2018-09-13T03:39:37.437Z,82.40
2018-09-13T03:42:05.896Z,82.50
2018-09-13T03:44:34.174Z,82.60
2018-09-13T03:47:02.595Z,82.60
2018-09-13T03:49:30.930Z,82.60
2018-09-13T03:51:59.193Z,82.70
2018-09-13T03:54:27.862Z,82.70
2018-09-13T03:56:56.767Z,82.70
2018-09-13T03:59:25.294Z,83.50
2018-09-13T04:01:53.817Z,82.90
2018-09-13T04:04:22.143Z,82.90
2018-09-13T04:06:50.693Z,83.10
2018-09-13T04:09:19.278Z,84.00
2018-09-13T04:11:47.552Z,83.10
2018-09-13T04:14:16.231Z,83.20
2018-09-13T04:16:44.833Z,83.00
2018-09-13T04:19:13.205Z,83.20
2018-09-13T04:21:41.617Z,83.30
2018-09-13T04:24:09.951Z,83.20
2018-09-13T04:26:38.625Z,83.40
2018-09-13T04:29:07.101Z,83.40
2018-09-13T04:31:35.545Z,83.50
2018-09-13T04:34:04.044Z,83.70
2018-09-13T04:36:37.394Z,83.80
2018-09-13T04:39:07.515Z,83.70
2018-09-13T04:41:35.836Z,83.90
2018-09-13T04:44:04.157Z,83.90
2018-09-13T04:46:32.597Z,84.10
2018-09-13T04:49:00.999Z,83.90
2018-09-13T04:51:29.265Z,84.00
2018-09-13T04:53:57.790Z,84.40
2018-09-13T04:56:26.196Z,84.00
2018-09-13T04:58:54.534Z,84.10
2018-09-13T05:01:22.875Z,84.10
2018-09-13T05:03:51.750Z,84.20
2018-09-13T05:06:20.017Z,84.70
2018-09-13T05:08:48.368Z,84.10
2018-09-13T05:11:17.453Z,84.40
2018-09-13T05:13:45.823Z,84.20
2018-09-13T05:16:14.197Z,84.40
2018-09-13T05:18:42.637Z,84.30
2018-09-13T05:21:10.969Z,84.40
2018-09-13T05:23:40.488Z,84.40
2018-09-13T05:26:08.729Z,84.40
2018-09-13T05:28:37.046Z,84.50
2018-09-13T05:31:05.673Z,84.40
2018-09-13T05:33:33.925Z,84.60
2018-09-13T05:36:02.311Z,84.50
2018-09-13T05:38:30.499Z,84.60
2018-09-13T05:40:58.707Z,84.60
2018-09-13T05:43:26.932Z,84.60
2018-09-13T05:45:55.129Z,84.60
2018-09-13T05:48:23.327Z,84.70
2018-09-13T05:50:51.703Z,84.60
2018-09-13T05:53:19.936Z,84.70
2018-09-13T05:55:48.251Z,84.70
2018-09-13T05:58:16.569Z,85.50
2018-09-13T06:00:44.840Z,84.70
2018-09-13T06:03:13.124Z,84.90
2018-09-13T06:05:41.521Z,84.70
2018-09-13T06:08:09.704Z,85.00
2018-09-13T06:10:38.038Z,84.80
2018-09-13T06:13:06.252Z,84.80
2018-09-13T06:15:34.638Z,84.90
2018-09-13T06:18:02.916Z,85.00
2018-09-13T06:20:31.318Z,85.00
2018-09-13T06:22:59.625Z,85.80
2018-09-13T06:25:29.149Z,85.30
2018-09-13T06:27:57.365Z,85.20
2018-09-13T06:30:25.715Z,85.20
2018-09-13T06:32:53.914Z,85.20
2018-09-13T06:35:22.159Z,85.20
2018-09-13T06:37:50.554Z,85.20
2018-09-13T06:40:18.828Z,85.70
2018-09-13T06:42:47.240Z,85.30
2018-09-13T06:45:15.580Z,84.80
2018-09-13T06:47:43.914Z,85.30
2018-09-13T06:50:12.251Z,85.30
2018-09-13T06:52:40.500Z,85.30
2018-09-13T06:55:08.807Z,85.30
2018-09-13T06:57:37.129Z,85.50
2018-09-13T07:00:05.840Z,85.50
2018-09-13T07:02:34.185Z,85.60
2018-09-13T07:05:02.397Z,85.70
2018-09-13T07:07:30.797Z,85.80
2018-09-13T07:09:59.435Z,86.10
2018-09-13T07:12:27.669Z,86.00
2018-09-13T07:14:56.106Z,85.80
2018-09-13T07:17:24.365Z,86.00
2018-09-13T07:19:52.621Z,86.00
2018-09-13T07:22:21.016Z,85.90
2018-09-13T07:24:49.323Z,85.90
2018-09-13T07:27:17.669Z,85.70
2018-09-13T07:29:45.917Z,85.70
2018-09-13T07:32:14.353Z,85.80
2018-09-13T07:34:42.615Z,85.70
2018-09-13T07:37:10.907Z,85.80
2018-09-13T07:39:40.169Z,85.70
2018-09-13T07:42:08.430Z,85.90
2018-09-13T07:44:36.768Z,85.70
2018-09-13T07:47:05.021Z,86.50
2018-09-13T07:49:33.581Z,85.90
2018-09-13T07:52:01.757Z,86.00
2018-09-13T07:54:30.051Z,86.10
2018-09-13T07:56:58.333Z,86.10
2018-09-13T07:59:27.977Z,86.10
2018-09-13T08:01:56.302Z,86.00
2018-09-13T08:04:24.580Z,85.70
2018-09-13T08:06:52.863Z,85.90
2018-09-13T08:09:21.173Z,85.70
2018-09-13T08:11:53.764Z,86.00
2018-09-13T08:14:21.945Z,86.10
2018-09-13T08:16:50.261Z,86.00
2018-09-13T08:19:18.521Z,86.00
2018-09-13T08:21:47.086Z,85.90
2018-09-13T08:24:15.248Z,85.90
2018-09-13T08:26:43.515Z,85.70
2018-09-13T08:29:11.978Z,85.80
2018-09-13T08:31:40.233Z,85.60
2018-09-13T08:34:08.498Z,85.60
2018-09-13T08:36:36.873Z,85.60
2018-09-13T08:39:08.513Z,85.60
2018-09-13T08:41:36.790Z,85.70
2018-09-13T08:44:05.133Z,85.90
2018-09-13T08:46:33.419Z,85.80
2018-09-13T08:49:01.657Z,85.70
2018-09-13T08:51:29.845Z,86.10
2018-09-13T08:53:58.112Z,86.10
2018-09-13T08:56:26.344Z,86.20
2018-09-13T08:58:54.738Z,86.30
2018-09-13T09:01:23.238Z,86.30
2018-09-13T09:03:51.565Z,86.30
2018-09-13T09:06:19.894Z,86.20
2018-09-13T09:08:53.015Z,86.20
2018-09-13T09:11:21.311Z,86.30
2018-09-13T09:13:49.815Z,86.30
2018-09-13T09:16:18.473Z,86.20
2018-09-13T09:18:46.715Z,86.40
2018-09-13T09:21:15.013Z,86.90
2018-09-13T09:23:43.342Z,86.70
2018-09-13T09:26:11.592Z,86.30
2018-09-13T09:28:39.963Z,86.20
2018-09-13T09:31:08.851Z,86.30
2018-09-13T09:33:37.048Z,86.30
2018-09-13T09:36:05.236Z,86.30
2018-09-13T09:38:33.580Z,86.20
2018-09-13T09:41:01.716Z,86.20
2018-09-13T09:43:29.950Z,86.20
2018-09-13T09:45:58.232Z,86.20
2018-09-13T09:48:26.669Z,86.60
2018-09-13T09:50:54.905Z,86.40
2018-09-13T09:53:23.288Z,86.20
2018-09-13T09:55:51.655Z,86.20
2018-09-13T09:58:19.977Z,86.10
2018-09-13T10:00:53.774Z,86.00
2018-09-13T10:03:22.075Z,86.60
2018-09-13T10:05:50.282Z,86.00
2018-09-13T10:08:18.484Z,86.00
2018-09-13T10:10:46.850Z,86.00
2018-09-13T10:13:15.119Z,86.20
2018-09-13T10:16:53.306Z,86.00
2018-09-13T10:19:26.940Z,86.00
2018-09-13T10:22:00.590Z,86.20
2018-09-13T10:24:34.239Z,86.00
2018-09-13T10:27:07.914Z,85.90
2018-09-13T10:29:41.653Z,86.00
2018-09-13T10:32:15.198Z,86.30
2018-09-13T10:34:48.833Z,86.50
2018-09-13T10:37:22.417Z,86.70
2018-09-13T10:39:56.153Z,86.40
2018-09-13T10:42:29.922Z,86.60
2018-09-13T10:45:03.629Z,86.60
2018-09-13T10:47:42.107Z,86.50
2018-09-13T10:50:10.977Z,86.70
2018-09-13T10:52:41.082Z,86.50
2018-09-13T10:55:09.364Z,86.50
2018-09-13T10:57:42.823Z,86.60
2018-09-13T11:00:11.833Z,86.30
2018-09-13T11:02:40.088Z,86.30
2018-09-13T11:05:08.428Z,86.10
2018-09-13T11:07:37.079Z,86.30
2018-09-13T11:10:05.400Z,86.20
2018-09-13T11:12:43.737Z,86.10
2018-09-13T11:15:18.009Z,86.20
2018-09-13T11:17:46.402Z,86.00
2018-09-13T11:20:14.673Z,86.00
2018-09-13T11:22:42.971Z,86.00
2018-09-13T11:25:11.439Z,86.70
2018-09-13T11:27:39.750Z,85.70
2018-09-13T11:30:07.994Z,85.70
2018-09-13T11:32:41.175Z,85.40
2018-09-13T11:35:09.496Z,85.40
2018-09-13T11:37:37.788Z,85.60
2018-09-13T11:40:06.158Z,85.30
2018-09-13T11:42:36.694Z,85.00
2018-09-13T11:45:05.481Z,85.20
2018-09-13T11:47:33.755Z,85.20
2018-09-13T11:50:01.996Z,85.10
2018-09-13T11:52:30.333Z,85.10
2018-09-13T11:54:58.685Z,85.00
2018-09-13T11:57:26.914Z,85.10
2018-09-13T11:59:55.270Z,85.00
2018-09-13T12:02:23.613Z,85.20
2018-09-13T12:04:51.902Z,84.70
2018-09-13T12:07:20.340Z,85.20
2018-09-13T12:09:48.853Z,85.10
2018-09-13T12:12:17.128Z,85.40
2018-09-13T12:14:45.391Z,85.30
2018-09-13T12:17:13.698Z,85.40
2018-09-13T12:19:42.055Z,85.40
2018-09-13T12:22:10.381Z,85.70
2018-09-13T12:24:38.860Z,85.50
2018-09-13T12:27:07.137Z,85.50
2018-09-13T12:29:35.342Z,85.30
2018-09-13T12:32:03.558Z,85.10
2018-09-13T12:34:31.994Z,85.00
2018-09-13T12:37:00.179Z,85.10
2018-09-13T12:39:28.436Z,85.30
2018-09-13T12:41:56.628Z,85.00
2018-09-13T12:44:24.909Z,85.20
2018-09-13T12:46:53.153Z,85.20
2018-09-13T12:49:21.649Z,85.20
2018-09-13T12:51:50.011Z,85.10
2018-09-13T12:54:18.280Z,85.00
2018-09-13T12:56:46.741Z,85.10
2018-09-13T12:59:14.956Z,85.00
2018-09-13T13:01:43.211Z,85.00
2018-09-13T13:04:11.476Z,84.80
2018-09-13T13:06:39.998Z,85.00
2018-09-13T13:09:09.002Z,84.80
2018-09-13T13:11:37.374Z,85.00
2018-09-13T13:14:05.737Z,85.50
2018-09-13T13:16:34.125Z,85.00
2018-09-13T13:19:02.354Z,85.00
2018-09-13T13:21:30.749Z,85.00
2018-09-13T13:23:58.983Z,85.00
2018-09-13T13:26:27.276Z,85.00
2018-09-13T13:28:55.628Z,85.20
2018-09-13T13:31:23.925Z,85.10
2018-09-13T13:33:52.215Z,85.00
2018-09-13T13:36:20.589Z,85.00
2018-09-13T13:38:48.936Z,85.00
2018-09-13T13:41:17.262Z,84.90
2018-09-13T13:43:45.514Z,84.70
2018-09-13T13:46:13.913Z,84.60
2018-09-13T13:48:42.222Z,84.70
2018-09-13T13:51:10.506Z,84.60
2018-09-13T13:53:38.897Z,84.70
2018-09-13T13:56:07.177Z,84.60
2018-09-13T13:58:35.567Z,84.70
2018-09-13T14:01:03.815Z,84.60
2018-09-13T14:03:32.163Z,84.70
2018-09-13T14:06:00.396Z,84.60
2018-09-13T14:08:28.877Z,84.10
2018-09-13T14:10:57.153Z,84.20
2018-09-13T14:13:25.710Z,84.40
2018-09-13T14:15:54.014Z,84.60
2018-09-13T14:18:39.724Z,84.50
2018-09-13T14:21:08.042Z,84.40
2018-09-13T14:23:36.211Z,84.20
2018-09-13T14:26:04.550Z,84.20
2018-09-13T14:28:32.759Z,84.10
2018-09-13T14:31:01.149Z,84.40
2018-09-13T14:33:29.483Z,84.40
2018-09-13T14:35:57.874Z,84.30
2018-09-13T14:38:26.176Z,84.30
2018-09-13T14:40:54.613Z,84.50
2018-09-13T14:43:22.877Z,84.40
2018-09-13T14:45:51.251Z,84.10
2018-09-13T14:48:19.426Z,84.20
2018-09-13T14:50:47.639Z,84.20
2018-09-13T14:53:15.838Z,84.30
2018-09-13T14:55:44.150Z,84.40
2018-09-13T14:58:12.336Z,84.40
2018-09-13T15:00:41.098Z,84.30
2018-09-13T15:03:09.582Z,84.20
2018-09-13T15:05:37.899Z,84.10
2018-09-13T15:08:06.130Z,83.90
2018-09-13T15:10:34.493Z,83.90
2018-09-13T15:13:02.803Z,83.70
2018-09-13T15:15:31.157Z,83.70
2018-09-13T15:18:00.015Z,83.70
2018-09-13T15:20:28.332Z,83.40
2018-09-13T15:22:56.636Z,83.20
2018-09-13T15:25:24.865Z,83.00
2018-09-13T15:27:53.786Z,82.90
2018-09-13T15:30:22.141Z,83.00
2018-09-13T15:35:24.365Z,82.80
2018-09-13T15:37:52.646Z,82.50
2018-09-13T15:40:20.952Z,82.20
2018-09-13T15:42:49.327Z,82.30
2018-09-13T15:45:17.872Z,82.40
2018-09-13T15:47:46.168Z,82.40
2018-09-13T15:50:14.428Z,82.40
2018-09-13T15:52:43.051Z,82.50
2018-09-13T15:55:11.446Z,82.40
2018-09-13T15:57:39.807Z,82.30
2018-09-13T16:00:08.391Z,82.20
2018-09-13T16:02:37.330Z,82.20
2018-09-13T16:05:05.692Z,82.30
2018-09-13T16:07:34.000Z,82.40
2018-09-13T16:10:02.478Z,82.20
2018-09-13T16:12:30.713Z,82.30
2018-09-13T16:14:59.029Z,82.40
2018-09-13T16:17:27.334Z,82.30
2018-09-13T16:19:55.599Z,82.50
2018-09-13T16:22:23.812Z,82.50
2018-09-13T16:24:52.030Z,82.50
2018-09-13T16:27:20.195Z,82.60
2018-09-13T16:29:49.810Z,82.30
2018-09-13T16:32:23.133Z,82.40
2018-09-13T16:34:52.181Z,82.40
2018-09-13T16:37:25.690Z,82.20
2018-09-13T16:40:04.905Z,82.20
2018-09-13T16:42:45.340Z,82.10
2018-09-13T16:45:13.773Z,82.20
2018-09-13T16:47:47.508Z,82.20
2018-09-13T16:50:15.814Z,82.20
2018-09-13T16:52:44.086Z,82.30
2018-09-13T16:55:12.320Z,82.20
2018-09-13T16:57:40.505Z,82.20
2018-09-13T17:00:08.790Z,82.30
2018-09-13T17:02:37.055Z,82.20
2018-09-13T17:05:05.292Z,82.20
2018-09-13T17:07:33.611Z,82.20
2018-09-13T17:10:01.965Z,82.40
2018-09-13T17:12:30.297Z,82.60
2018-09-13T17:14:58.677Z,82.60
2018-09-13T17:17:26.963Z,82.70
2018-09-13T17:19:55.738Z,82.80
2018-09-13T17:22:24.017Z,82.80
2018-09-13T17:24:52.345Z,82.80
2018-09-13T17:27:22.981Z,82.90
2018-09-13T17:29:51.365Z,82.70
2018-09-13T17:32:19.771Z,82.70
2018-09-13T17:34:48.181Z,82.70
2018-09-13T17:37:16.548Z,82.90
2018-09-13T17:39:44.806Z,82.90
2018-09-13T17:42:13.063Z,82.90
2018-09-13T17:44:41.398Z,83.00
2018-09-13T17:47:09.765Z,82.90
2018-09-13T17:49:38.019Z,82.90
2018-09-13T17:52:06.333Z,82.90
2018-09-13T17:54:34.586Z,83.00
2018-09-13T17:57:03.022Z,83.10
2018-09-13T17:59:31.493Z,83.10
2018-09-13T18:01:59.876Z,83.70
2018-09-13T18:04:28.354Z,83.20
2018-09-13T18:06:56.903Z,83.30
2018-09-13T18:09:25.419Z,83.40
2018-09-13T18:11:53.727Z,83.40
2018-09-13T18:14:22.071Z,83.40
2018-09-13T18:16:50.426Z,83.40
2018-09-13T18:19:18.915Z,83.40
2018-09-13T18:21:47.321Z,83.50
2018-09-13T18:24:15.834Z,83.40
2018-09-13T18:26:44.222Z,84.30
2018-09-13T18:29:12.718Z,83.60
2018-09-13T18:31:41.038Z,83.70
2018-09-13T18:34:09.470Z,83.70
2018-09-13T18:36:37.997Z,83.70
2018-09-13T18:39:07.933Z,83.70
2018-09-13T18:41:36.602Z,83.70
2018-09-13T18:44:04.982Z,83.80
2018-09-13T18:46:33.285Z,83.70
2018-09-13T18:49:01.610Z,83.60
2018-09-13T18:51:30.250Z,83.80
2018-09-13T18:53:58.702Z,83.80
2018-09-13T18:56:26.966Z,84.00
2018-09-13T18:58:55.279Z,83.80
2018-09-13T19:01:23.713Z,83.80
2018-09-13T19:03:52.349Z,84.10
2018-09-13T19:06:21.055Z,84.10
2018-09-13T19:08:49.362Z,84.20
2018-09-13T19:11:18.186Z,84.20
2018-09-13T19:13:46.669Z,84.30
2018-09-13T19:16:15.048Z,84.30
2018-09-13T19:18:43.301Z,84.70
2018-09-13T19:21:11.773Z,84.30
2018-09-13T19:23:40.156Z,84.20
2018-09-13T19:26:08.659Z,84.20
2018-09-13T19:28:37.317Z,84.20
2018-09-13T19:31:06.179Z,84.20
2018-09-13T19:33:34.420Z,84.40
2018-09-13T19:36:07.733Z,84.60
2018-09-13T19:38:36.077Z,84.60
2018-09-13T19:41:04.372Z,84.60
2018-09-13T19:43:32.927Z,84.50
2018-09-13T19:46:01.529Z,84.60
2018-09-13T19:48:30.080Z,84.70
2018-09-13T19:50:58.503Z,84.60
2018-09-13T19:53:26.772Z,84.60
2018-09-13T19:55:55.346Z,84.70
2018-09-13T19:58:23.704Z,84.60
2018-09-13T20:00:52.129Z,84.70
2018-09-13T20:03:20.598Z,85.30
2018-09-13T20:05:48.957Z,84.70
2018-09-13T20:08:17.395Z,84.60
2018-09-13T20:10:45.665Z,84.60
2018-09-13T20:13:14.046Z,84.70
2018-09-13T20:15:42.466Z,84.90
2018-09-13T20:18:10.803Z,85.00
2018-09-13T20:20:39.233Z,85.00
2018-09-13T20:23:07.655Z,84.90
2018-09-13T20:25:35.988Z,85.00
2018-09-13T20:28:08.012Z,85.00
2018-09-13T20:30:36.445Z,84.90
2018-09-13T20:33:04.803Z,84.80
2018-09-13T20:35:33.160Z,84.90
2018-09-13T20:38:01.550Z,84.90
2018-09-13T20:40:29.907Z,85.00
2018-09-13T20:42:58.361Z,85.00
2018-09-13T20:45:26.704Z,84.90
2018-09-13T20:47:55.177Z,85.00
2018-09-13T20:50:23.504Z,84.80
2018-09-13T20:52:51.833Z,84.80
2018-09-13T20:55:20.204Z,85.00
2018-09-13T20:57:48.509Z,85.00
2018-09-13T21:00:21.274Z,85.00
2018-09-13T21:02:50.356Z,84.70
2018-09-13T21:05:22.985Z,84.80
2018-09-13T21:07:51.365Z,85.20
2018-09-13T21:10:20.057Z,85.30
2018-09-13T21:12:49.019Z,85.40
2018-09-13T21:15:17.326Z,85.10
2018-09-13T21:17:45.649Z,85.20
2018-09-13T21:20:14.029Z,85.20
2018-09-13T21:22:42.319Z,85.30
2018-09-13T21:25:10.632Z,85.40
2018-09-13T21:27:39.144Z,85.20
2018-09-13T21:30:07.458Z,85.20
2018-09-13T21:32:35.739Z,85.70
2018-09-13T21:35:04.072Z,85.10
2018-09-13T21:37:32.388Z,85.10
2018-09-13T21:40:01.068Z,84.90
2018-09-13T21:42:29.378Z,84.70
2018-09-13T21:44:57.816Z,84.90
2018-09-13T21:47:26.353Z,85.00
2018-09-13T21:49:54.641Z,85.20
2018-09-13T21:52:22.975Z,85.20
2018-09-13T21:54:51.276Z,85.20
2018-09-13T21:57:19.680Z,85.30
2018-09-13T21:59:47.945Z,85.20
2018-09-13T22:02:16.384Z,85.30
2018-09-13T22:04:44.686Z,85.40
2018-09-13T22:07:13.025Z,85.50
2018-09-13T22:09:41.617Z,85.40
2018-09-13T22:12:11.599Z,85.40
2018-09-13T22:14:40.236Z,85.50
2018-09-13T22:17:09.260Z,85.50
2018-09-13T22:19:37.547Z,85.60
2018-09-13T22:22:06.081Z,85.50
2018-09-13T22:24:34.388Z,85.50
2018-09-13T22:27:03.013Z,85.40
2018-09-13T22:29:31.503Z,85.60
2018-09-13T22:31:59.978Z,85.40
2018-09-13T22:34:28.530Z,85.40
2018-09-13T22:36:56.969Z,85.40
2018-09-13T22:39:25.512Z,85.10
2018-09-13T22:41:53.811Z,85.10
2018-09-13T22:44:22.229Z,85.40
2018-09-13T22:46:50.630Z,85.30
2018-09-13T22:49:19.209Z,85.20
2018-09-13T22:51:47.638Z,85.20
2018-09-13T22:54:16.032Z,85.10
2018-09-13T22:56:44.458Z,85.20
2018-09-13T22:59:13.025Z,85.20
2018-09-13T23:01:41.423Z,85.20
2018-09-13T23:04:09.854Z,85.30
2018-09-13T23:06:38.185Z,85.20
2018-09-13T23:09:08.970Z,85.20
2018-09-13T23:11:37.473Z,85.20
2018-09-13T23:14:06.078Z,85.10
2018-09-13T23:16:34.421Z,85.10
2018-09-13T23:19:02.995Z,85.10
2018-09-13T23:21:31.408Z,85.10
2018-09-13T23:23:59.807Z,85.10
2018-09-13T23:26:28.302Z,85.00
2018-09-13T23:28:56.763Z,85.00
2018-09-13T23:31:25.223Z,85.00
2018-09-13T23:33:53.708Z,85.00
2018-09-13T23:36:22.206Z,85.00
2018-09-13T23:38:50.595Z,85.00
2018-09-13T23:41:19.200Z,84.80
2018-09-13T23:43:47.638Z,84.80
2018-09-13T23:46:16.394Z,84.90
2018-09-13T23:48:44.862Z,84.80
2018-09-13T23:51:13.485Z,84.70
2018-09-13T23:53:41.924Z,84.70
2018-09-13T23:56:10.446Z,84.90
2018-09-13T23:58:38.920Z,85.00
